Time;durP1;ratioP1;P1;durP2;ratioP2;P2;SDS_P1;SDS_P2;PMS_P1;PMS_P2;Temp;Humidity;BMP_temperature;BMP_pressure;BME280_temperature;BME280_humidity;BME280_pressure;Samples;Min_cycle;Max_cycle;Signal;HPM_P1;HPM_P2
2022/02/03 00:02:23;;;;;;;10.38;3.72;;;0.70;99.90;;;;;;5061006;28;20231;-48
2022/02/03 00:05:06;;;;;;;6.40;3.45;;;0.70;99.90;;;;;;5061427;28;20510;-48
2022/02/03 00:07:45;;;;;;;3.90;3.45;;;0.60;99.90;;;;;;5061226;28;20234;-47
2022/02/03 00:10:31;;;;;;;5.03;3.35;;;0.60;99.90;;;;;;5061535;28;20282;-48
2022/02/03 00:24:27;;;;;;;6.82;3.67;;;0.80;99.90;;;;;;5061282;28;20199;-48
2022/02/03 00:27:01;;;;;;;9.40;5.63;;;0.70;99.90;;;;;;5060797;28;20223;-51
2022/02/03 00:29:56;;;;;;;8.00;4.40;;;0.80;99.90;;;;;;5061775;28;20238;-50
2022/02/03 00:35:45;;;;;;;6.25;4.00;;;0.80;99.90;;;;;;5064333;28;20222;-49
2022/02/03 00:51:11;;;;;;;4.05;2.83;;;1.00;99.90;;;;;;5061880;28;20231;-51
2022/02/03 00:53:39;;;;;;;5.85;4.03;;;1.00;99.90;;;;;;5060546;28;20195;-49
2022/02/03 00:56:23;;;;;;;6.03;4.45;;;1.00;99.90;;;;;;5061074;28;20199;-48
2022/02/03 00:58:58;;;;;;;4.88;3.63;;;1.00;99.90;;;;;;5061096;28;20283;-49
2022/02/03 01:01:30;;;;;;;7.72;4.57;;;0.90;99.90;;;;;;5060488;28;20227;-45
2022/02/03 01:04:04;;;;;;;4.47;3.42;;;0.90;99.90;;;;;;5061035;28;20210;-48
2022/02/03 01:06:34;;;;;;;6.63;4.13;;;0.90;99.90;;;;;;5060774;28;20219;-51
2022/02/03 01:09:06;;;;;;;4.60;3.30;;;0.90;99.90;;;;;;5059737;28;20200;-48
2022/02/03 01:11:42;;;;;;;6.47;4.03;;;1.00;99.90;;;;;;5060084;28;20215;-49
2022/02/03 01:14:16;;;;;;;6.90;4.15;;;0.90;99.90;;;;;;5060031;28;20428;-45
2022/02/03 01:44:43;;;;;;;7.18;3.83;;;0.60;99.90;;;;;;5060480;28;20204;-46
2022/02/03 01:47:28;;;;;;;4.07;3.58;;;0.60;99.90;;;;;;5060075;28;20603;-51
2022/02/03 01:52:39;;;;;;;3.72;2.85;;;0.70;99.90;;;;;;5059961;28;20233;-52
2022/02/03 01:55:12;;;;;;;7.60;3.08;;;0.70;99.90;;;;;;5060365;28;20187;-49
2022/02/03 01:57:58;;;;;;;5.90;3.05;;;0.70;99.90;;;;;;5059970;28;20202;-46
2022/02/03 02:00:26;;;;;;;5.82;3.40;;;0.80;99.90;;;;;;5059699;28;20219;-48
2022/02/03 02:03:08;;;;;;;2.47;2.28;;;0.80;99.90;;;;;;5060081;28;20261;-46
2022/02/03 02:05:41;;;;;;;16.17;4.32;;;0.80;99.90;;;;;;5060647;28;20199;-48
2022/02/03 02:08:20;;;;;;;5.53;2.75;;;0.90;99.90;;;;;;5059748;28;20329;-51
2022/02/03 02:11:14;;;;;;;6.75;3.38;;;0.80;99.90;;;;;;5059611;28;20215;-49
2022/02/03 02:19:27;;;;;;;11.60;4.03;;;0.70;99.90;;;;;;5060089;28;20382;-52
2022/02/03 02:39:29;;;;;;;4.05;3.00;;;0.60;99.90;;;;;;5063406;28;20448;-46
2022/02/03 02:45:05;;;;;;;4.93;2.72;;;0.40;99.90;;;;;;5063125;28;20433;-50
2022/02/03 02:47:54;;;;;;;9.85;4.97;;;0.60;99.90;;;;;;5062658;28;20215;-50
2022/02/03 02:50:37;;;;;;;7.43;3.13;;;0.70;99.90;;;;;;5063082;28;20234;-48
2022/02/03 02:53:24;;;;;;;7.03;4.00;;;0.70;99.90;;;;;;5063114;28;20241;-47
2022/02/03 03:36:53;;;;;;;5.80;4.00;;;1.50;99.90;;;;;;5062085;28;20287;-53
2022/02/03 03:39:29;;;;;;;8.98;5.07;;;1.70;99.90;;;;;;5061975;28;20195;-48
2022/02/03 03:42:02;;;;;;;17.67;6.30;;;1.70;99.90;;;;;;5061708;28;20211;-50
2022/02/03 03:44:33;;;;;;;6.90;4.57;;;1.60;99.90;;;;;;5061829;28;20560;-47
2022/02/03 03:47:04;;;;;;;10.38;4.57;;;1.70;99.90;;;;;;5061871;28;20227;-51
2022/02/03 03:49:43;;;;;;;10.50;5.28;;;1.50;99.90;;;;;;5061833;28;20506;-46
2022/02/03 03:52:18;;;;;;;12.88;8.23;;;1.50;99.90;;;;;;5061607;28;20224;-50
2022/02/03 03:55:05;;;;;;;8.32;4.28;;;1.50;99.90;;;;;;5062119;28;20202;-48
2022/02/03 04:28:37;;;;;;;6.43;4.80;;;1.20;99.90;;;;;;5061214;28;20509;-46
2022/02/03 04:34:44;;;;;;;15.18;7.25;;;1.60;99.90;;;;;;5061644;28;20306;-52
2022/02/03 05:03:17;;;;;;;6.60;4.35;;;1.60;99.90;;;;;;5068053;28;20207;-47
2022/02/03 05:06:06;;;;;;;5.22;4.10;;;1.50;99.90;;;;;;5067592;28;20210;-52
2022/02/03 05:10:06;;;;;;;5.00;4.05;;;1.60;99.90;;;;;;5067939;28;20230;-51
2022/02/03 05:15:27;;;;;;;14.10;5.60;;;1.60;99.90;;;;;;5061556;28;20261;-46
2022/02/03 06:05:04;;;;;;;5.80;3.70;;;2.00;99.90;;;;;;5062858;28;20228;-50
2022/02/03 06:07:59;;;;;;;9.52;5.35;;;2.10;99.90;;;;;;5063769;28;20234;-49
2022/02/03 06:13:05;;;;;;;7.50;5.28;;;2.20;99.90;;;;;;5063070;28;20210;-47
2022/02/03 06:15:43;;;;;;;7.80;5.50;;;2.20;99.90;;;;;;5063544;28;20195;-48
2022/02/03 06:29:11;;;;;;;6.30;4.93;;;2.40;99.90;;;;;;5063080;28;20224;-47
2022/02/03 06:31:44;;;;;;;9.63;4.40;;;2.40;99.90;;;;;;5063203;28;20215;-48
2022/02/03 06:34:17;;;;;;;8.48;4.25;;;2.40;99.90;;;;;;5063059;28;20203;-45
2022/02/03 06:36:44;;;;;;;7.95;4.00;;;2.50;99.90;;;;;;5062908;28;20235;-46
2022/02/03 06:39:27;;;;;;;12.07;4.03;;;2.70;99.90;;;;;;5062794;28;20211;-47
2022/02/03 06:41:59;;;;;;;5.88;4.93;;;2.60;99.90;;;;;;5062769;28;20307;-46
2022/02/03 06:44:36;;;;;;;23.45;7.53;;;2.80;99.90;;;;;;5062862;28;20203;-49
2022/02/03 06:52:40;;;;;;;5.93;4.68;;;2.90;99.90;;;;;;5082570;22;20231;-50
2022/02/03 06:57:42;;;;;;;11.23;3.85;;;3.00;99.90;;;;;;5063088;28;20234;-50
2022/02/03 07:00:19;;;;;;;4.85;4.03;;;3.10;99.90;;;;;;5062292;28;20392;-46
2022/02/03 07:02:49;;;;;;;5.70;3.67;;;3.30;99.90;;;;;;5062935;28;20220;-48
2022/02/03 07:05:16;;;;;;;13.25;6.50;;;3.50;99.90;;;;;;5062710;28;20200;-48
2022/02/03 07:07:44;;;;;;;12.15;4.78;;;3.50;99.90;;;;;;5062108;28;20230;-50
2022/02/03 07:10:12;;;;;;;6.28;4.32;;;3.50;99.90;;;;;;5062620;28;20510;-49
2022/02/03 07:12:39;;;;;;;6.57;4.30;;;3.60;99.90;;;;;;5062994;28;20225;-48
2022/02/03 07:15:08;;;;;;;6.95;4.38;;;3.40;99.90;;;;;;5062694;28;20204;-48
2022/02/03 07:17:36;;;;;;;13.98;6.47;;;3.50;99.90;;;;;;5062689;28;20291;-48
2022/02/03 07:20:06;;;;;;;14.23;5.38;;;3.70;99.90;;;;;;5062473;28;20253;-46
2022/02/03 07:22:34;;;;;;;14.32;5.82;;;3.90;99.90;;;;;;5065111;28;20229;-49
2022/02/03 07:25:02;;;;;;;11.20;7.30;;;3.90;99.90;;;;;;5066013;28;20200;-50
2022/02/03 07:27:29;;;;;;;10.27;6.38;;;3.90;99.90;;;;;;5063040;28;20445;-51
2022/02/03 07:29:58;;;;;;;10.02;6.50;;;3.90;99.90;;;;;;5070698;28;20193;-54
2022/02/03 07:32:25;;;;;;;13.48;7.20;;;3.90;99.90;;;;;;5066942;28;20546;-50
2022/02/03 07:34:54;;;;;;;13.75;8.18;;;4.00;99.90;;;;;;5063809;28;20241;-53
2022/02/03 07:37:26;;;;;;;14.82;8.70;;;4.20;99.90;;;;;;5062820;28;20198;-48
2022/02/03 07:39:54;;;;;;;10.40;5.57;;;4.40;99.90;;;;;;5063864;28;20210;-51
2022/02/03 07:42:27;;;;;;;11.18;6.07;;;4.40;99.90;;;;;;5061068;28;20216;-48
2022/02/03 07:44:55;;;;;;;9.32;7.05;;;4.50;99.90;;;;;;5062250;28;20207;-49
2022/02/03 07:47:22;;;;;;;11.73;6.57;;;4.40;99.90;;;;;;5062139;28;20197;-51
2022/02/03 07:49:49;;;;;;;9.50;7.05;;;4.40;99.90;;;;;;5062028;28;20243;-49
2022/02/03 07:52:17;;;;;;;8.13;5.65;;;4.50;99.90;;;;;;5061678;28;20225;-53
2022/02/03 07:54:44;;;;;;;11.93;5.50;;;4.70;99.90;;;;;;5061885;28;20188;-50
2022/02/03 07:57:11;;;;;;;16.90;6.03;;;4.80;99.90;;;;;;5061911;28;20198;-52
2022/02/03 07:59:38;;;;;;;6.82;4.90;;;4.60;99.90;;;;;;5062235;28;20214;-48
2022/02/03 08:02:07;;;;;;;7.72;5.20;;;4.50;99.90;;;;;;5061502;28;20221;-50
2022/02/03 08:04:42;;;;;;;9.88;5.43;;;4.70;99.90;;;;;;5062150;28;20201;-51
2022/02/03 08:07:12;;;;;;;10.20;5.13;;;4.90;99.90;;;;;;5061775;28;20397;-48
2022/02/03 08:09:48;;;;;;;10.27;5.82;;;4.90;99.90;;;;;;5062075;28;20201;-47
2022/02/03 08:12:17;;;;;;;21.10;7.40;;;4.80;99.90;;;;;;5061299;28;20657;-47
2022/02/03 08:14:48;;;;;;;6.47;4.97;;;4.90;99.90;;;;;;5061472;28;20202;-49
2022/02/03 08:17:27;;;;;;;10.07;4.82;;;5.00;99.90;;;;;;5061460;28;20342;-47
2022/02/03 08:19:58;;;;;;;8.45;4.97;;;5.20;99.90;;;;;;5061391;28;20279;-47
2022/02/03 08:22:32;;;;;;;7.88;4.07;;;5.10;99.90;;;;;;5060691;28;20215;-51
2022/02/03 08:25:19;;;;;;;13.00;5.28;;;5.10;99.90;;;;;;5061307;28;20237;-51
2022/02/03 08:30:59;;;;;;;11.18;5.75;;;5.30;99.90;;;;;;5061024;28;20221;-47
2022/02/03 08:33:27;;;;;;;10.85;4.78;;;5.20;99.90;;;;;;5060927;28;20195;-49
2022/02/03 08:35:55;;;;;;;5.40;3.97;;;5.20;99.90;;;;;;5061555;28;20198;-49
2022/02/03 08:38:34;;;;;;;7.32;4.57;;;5.40;99.90;;;;;;5061722;28;20505;-48
2022/02/03 08:41:02;;;;;;;11.80;4.47;;;5.40;99.90;;;;;;5062938;28;20494;-52
2022/02/03 08:43:32;;;;;;;12.48;3.50;;;5.40;99.90;;;;;;5064561;28;20209;-49
2022/02/03 08:46:02;;;;;;;10.73;4.15;;;5.40;99.90;;;;;;5063781;28;20206;-51
2022/02/03 08:48:31;;;;;;;8.75;4.07;;;5.80;99.90;;;;;;5065815;28;20219;-50
2022/02/03 08:51:00;;;;;;;21.02;5.65;;;6.50;99.90;;;;;;5065281;28;20417;-51
2022/02/03 08:53:34;;;;;;;6.88;4.38;;;7.60;99.90;;;;;;5061259;28;20210;-49
2022/02/03 09:36:02;;;;;;;19.67;3.65;;;7.00;99.90;;;;;;5064784;28;20248;-48
2022/02/03 09:54:20;;;;;;;14.82;3.40;;;6.10;99.90;;;;;;5064282;28;20191;-48
2022/02/03 10:00:16;;;;;;;5.93;3.00;;;5.80;99.90;;;;;;5064383;28;20206;-48
2022/02/03 10:02:28;;;;;;;4.35;3.30;;;5.80;99.90;;;;;;5061804;28;20264;-49
2022/02/03 10:05:11;;;;;;;4.05;3.35;;;6.00;99.90;;;;;;5064233;28;20371;-48
2022/02/03 10:07:39;;;;;;;7.20;3.85;;;6.10;99.90;;;;;;5064112;28;20227;-48
2022/02/03 10:10:12;;;;;;;5.35;3.42;;;6.20;99.90;;;;;;5063815;28;20525;-49
2022/02/03 10:12:42;;;;;;;11.15;5.10;;;6.10;99.90;;;;;;5067751;28;20219;-51
2022/02/03 10:15:12;;;;;;;7.68;3.10;;;5.90;99.90;;;;;;5067222;28;20195;-48
2022/02/03 10:17:42;;;;;;;6.07;3.60;;;6.00;99.90;;;;;;5064224;28;20207;-47
2022/02/03 10:20:13;;;;;;;17.25;4.93;;;6.10;99.90;;;;;;5063854;28;20200;-47
2022/02/03 10:22:48;;;;;;;11.45;4.97;;;6.20;99.90;;;;;;5063670;28;20219;-48
2022/02/03 10:25:28;;;;;;;5.15;3.65;;;6.20;99.90;;;;;;5063912;28;20207;-47
2022/02/03 10:28:05;;;;;;;9.57;5.57;;;6.30;99.90;;;;;;5063603;28;20226;-48
2022/02/03 10:30:40;;;;;;;7.82;4.45;;;6.30;99.90;;;;;;5063928;28;20497;-50
2022/02/03 10:33:07;;;;;;;9.52;5.43;;;6.20;99.90;;;;;;5063760;28;20234;-49
2022/02/03 10:35:52;;;;;;;14.13;4.18;;;6.40;99.90;;;;;;5063424;28;20494;-50
2022/02/03 10:44:29;;;;;;;8.30;3.97;;;6.60;99.90;;;;;;5063846;28;20200;-48
2022/02/03 10:47:50;;;;;;;2.92;2.35;;;6.80;99.90;;;;;;5066682;28;20199;-48
2022/02/03 10:50:16;;;;;;;4.82;2.97;;;6.60;99.90;;;;;;5064346;28;20300;-49
2022/02/03 10:58:39;;;;;;;4.15;2.28;;;6.50;99.90;;;;;;5063812;28;20199;-48
2022/02/03 11:09:21;;;;;;;3.25;2.75;;;7.10;99.90;;;;;;5062867;28;20220;-47
2022/02/03 11:11:55;;;;;;;13.02;3.65;;;7.00;99.90;;;;;;5062871;28;20223;-50
2022/02/03 11:14:24;;;;;;;12.52;4.57;;;6.90;99.90;;;;;;5063079;28;20390;-46
2022/02/03 11:16:51;;;;;;;6.65;3.85;;;6.90;99.90;;;;;;5062946;28;20356;-51
2022/02/03 11:19:24;;;;;;;28.55;11.32;;;6.90;99.90;;;;;;5062732;28;20205;-48
2022/02/03 11:22:01;;;;;;;25.25;8.15;;;6.90;99.90;;;;;;5062695;28;20461;-49
2022/02/03 11:24:32;;;;;;;14.43;5.70;;;6.90;99.90;;;;;;5063618;28;20205;-47
2022/02/03 11:27:28;;;;;;;9.30;4.68;;;6.90;99.90;;;;;;5062934;28;20203;-46
2022/02/03 11:31:13;;;;;;;11.00;5.70;;;6.90;99.90;;;;;;5062849;28;20294;-51
2022/02/03 12:30:08;;;;;;;7.32;2.75;;;7.90;99.90;;;;;;5063912;28;20425;-48
2022/02/03 12:43:12;;;;;;;3.75;2.67;;;7.90;99.90;;;;;;5064243;28;20243;-50
2022/02/03 12:45:40;;;;;;;3.95;2.38;;;7.80;99.90;;;;;;5061765;28;20403;-50
2022/02/03 12:48:09;;;;;;;7.45;3.40;;;7.90;99.90;;;;;;5061644;28;20502;-47
2022/02/03 12:50:38;;;;;;;4.13;2.40;;;7.70;99.90;;;;;;5061406;28;20246;-48
2022/02/03 12:53:06;;;;;;;3.47;2.88;;;7.70;99.90;;;;;;5080463;22;20280;-47
2022/02/03 12:55:35;;;;;;;4.25;2.65;;;7.90;99.90;;;;;;5059474;28;20549;-50
2022/02/03 12:58:13;;;;;;;9.35;2.75;;;8.00;99.90;;;;;;5060270;28;20498;-47
2022/02/03 13:01:05;;;;;;;4.75;3.70;;;7.80;99.90;;;;;;5059930;28;20206;-48
2022/02/03 13:03:38;;;;;;;3.85;2.35;;;7.60;99.90;;;;;;5040860;28;20200;-50
2022/02/03 13:06:10;;;;;;;4.55;2.78;;;7.50;99.90;;;;;;5039829;28;20234;-52
2022/02/03 13:08:51;;;;;;;2.55;2.35;;;7.50;99.90;;;;;;5040965;28;20462;-51
2022/02/03 13:11:30;;;;;;;7.90;2.47;;;7.40;99.90;;;;;;5040228;28;20200;-49
2022/02/03 13:16:56;;;;;;;5.15;3.05;;;7.60;99.90;;;;;;5040533;28;20508;-52
2022/02/03 13:25:03;;;;;;;5.13;2.88;;;7.40;99.90;;;;;;5040384;28;20305;-49
2022/02/03 13:28:29;;;;;;;5.32;2.25;;;7.30;99.90;;;;;;5040256;28;20391;-47
2022/02/03 13:30:58;;;;;;;5.90;2.22;;;7.30;99.90;;;;;;5033175;28;20236;-51
2022/02/03 13:33:31;;;;;;;2.97;2.38;;;7.40;99.90;;;;;;5038981;28;20266;-48
2022/02/03 13:36:13;;;;;;;3.33;2.05;;;7.50;99.90;;;;;;5040035;28;20200;-49
2022/02/03 13:38:50;;;;;;;3.95;2.38;;;7.50;99.90;;;;;;5041336;28;20238;-50
2022/02/03 13:41:24;;;;;;;2.95;2.33;;;7.60;99.90;;;;;;5039782;28;20433;-49
2022/02/03 13:43:51;;;;;;;10.40;2.30;;;7.70;99.90;;;;;;5040321;28;20207;-47
2022/02/03 13:46:30;;;;;;;10.30;3.42;;;7.70;99.90;;;;;;5040582;28;20204;-46
2022/02/03 13:48:57;;;;;;;4.97;2.53;;;7.70;99.90;;;;;;5039816;28;20542;-48
2022/02/03 13:51:27;;;;;;;8.13;3.22;;;7.70;99.90;;;;;;5038535;28;20460;-49
2022/02/03 14:26:56;;;;;;;6.47;3.10;;;8.00;99.90;;;;;;5043410;28;20200;-48
2022/02/03 14:29:27;;;;;;;7.95;2.88;;;7.90;99.90;;;;;;5042917;28;20223;-50
2022/02/03 14:32:00;;;;;;;6.22;2.65;;;7.90;99.90;;;;;;5043149;28;20698;-49
2022/02/03 14:34:35;;;;;;;4.13;3.00;;;7.90;99.90;;;;;;5043013;28;20207;-50
2022/02/03 14:37:23;;;;;;;2.60;2.40;;;7.70;99.90;;;;;;5043613;28;20204;-49
2022/02/03 14:42:23;;;;;;;10.85;2.63;;;7.80;99.90;;;;;;5043022;28;20220;-46
2022/02/03 14:44:51;;;;;;;7.45;3.40;;;7.60;99.90;;;;;;5043788;28;20205;-51
2022/02/03 14:47:22;;;;;;;6.97;3.33;;;7.70;99.90;;;;;;5043002;28;20238;-50
2022/02/03 14:49:49;;;;;;;9.60;3.72;;;7.70;99.90;;;;;;5042781;28;20291;-49
2022/02/03 14:52:32;;;;;;;6.25;3.33;;;7.60;99.90;;;;;;5042867;28;20239;-53
2022/02/03 14:58:14;;;;;;;8.98;3.25;;;7.60;99.90;;;;;;5044127;28;20253;-49
2022/02/03 15:00:45;;;;;;;12.48;3.35;;;7.70;99.90;;;;;;5042267;28;20227;-47
2022/02/03 15:03:13;;;;;;;18.58;3.30;;;7.70;99.90;;;;;;5043737;28;20478;-50
2022/02/03 15:05:41;;;;;;;6.78;3.58;;;7.50;99.90;;;;;;5043012;28;20613;-49
2022/02/03 15:08:21;;;;;;;6.68;3.75;;;7.40;99.90;;;;;;5042628;28;20267;-49
2022/02/03 15:15:43;;;;;;;3.95;2.55;;;7.30;99.90;;;;;;5042282;28;20196;-50
2022/02/03 15:18:13;;;;;;;25.77;23.02;;;7.20;99.90;;;;;;5041929;28;20200;-47
2022/02/03 15:20:40;;;;;;;10.02;4.55;;;7.20;99.90;;;;;;5041835;28;20200;-48
2022/02/03 15:23:08;;;;;;;7.53;3.72;;;7.10;99.90;;;;;;5041760;28;20227;-50
2022/02/03 15:25:35;;;;;;;5.63;2.97;;;7.10;99.90;;;;;;5041848;28;20211;-52
2022/02/03 15:28:03;;;;;;;9.05;3.70;;;7.00;99.90;;;;;;5041121;28;20207;-47
2022/02/03 15:30:31;;;;;;;6.90;4.40;;;7.00;99.90;;;;;;5041572;28;20549;-51
2022/02/03 15:32:58;;;;;;;6.05;2.90;;;6.80;99.90;;;;;;5041667;28;20220;-46
2022/02/03 15:37:54;;;;;;;13.40;4.13;;;6.70;99.90;;;;;;5041600;28;20224;-49
2022/02/03 15:40:25;;;;;;;8.20;4.28;;;6.70;99.90;;;;;;5041577;28;20529;-48
2022/02/03 15:45:24;;;;;;;12.80;3.92;;;6.60;99.90;;;;;;5041743;28;20557;-47
2022/02/03 15:47:59;;;;;;;9.35;3.38;;;6.60;99.90;;;;;;5041577;28;20239;-48
2022/02/03 16:01:40;;;;;;;14.35;4.32;;;6.50;99.90;;;;;;5041270;28;20246;-45
2022/02/03 16:17:30;;;;;;;12.93;5.25;;;6.20;99.90;;;;;;5041369;28;20214;-48
2022/02/03 16:20:10;;;;;;;5.60;4.65;;;6.10;99.90;;;;;;5042646;28;20206;-46
2022/02/03 16:22:53;;;;;;;9.10;5.15;;;6.00;99.90;;;;;;5042058;28;20230;-51
2022/02/03 16:42:55;;;;;;;5.25;4.40;;;5.60;99.90;;;;;;5040378;28;20436;-53
2022/02/03 16:50:49;;;;;;;6.53;4.05;;;5.60;99.90;;;;;;5040242;28;20530;-46
2022/02/03 16:53:17;;;;;;;8.80;4.47;;;5.70;99.90;;;;;;5040124;28;20289;-49
2022/02/03 16:55:46;;;;;;;7.32;4.55;;;5.60;99.90;;;;;;5039135;28;20440;-47
2022/02/03 16:58:15;;;;;;;10.02;5.80;;;5.60;99.90;;;;;;5040020;28;20199;-49
2022/02/03 17:00:45;;;;;;;9.98;5.68;;;5.60;99.90;;;;;;5040275;28;20207;-47
2022/02/03 17:03:13;;;;;;;9.73;5.22;;;5.70;99.90;;;;;;5039713;28;20262;-49
2022/02/03 17:05:40;;;;;;;11.20;6.38;;;5.60;99.90;;;;;;5040539;28;20270;-52
2022/02/03 17:08:08;;;;;;;11.82;7.60;;;5.60;99.90;;;;;;5039905;28;20491;-48
2022/02/03 17:10:36;;;;;;;11.63;6.55;;;5.70;99.90;;;;;;5041291;28;20348;-45
2022/02/03 17:13:04;;;;;;;8.63;5.80;;;5.80;99.90;;;;;;5041592;28;20222;-48
2022/02/03 17:15:31;;;;;;;8.88;6.68;;;5.70;99.90;;;;;;5040581;28;20285;-49
2022/02/03 17:17:59;;;;;;;10.82;4.45;;;5.50;99.90;;;;;;5040098;28;20196;-46
2022/02/03 17:20:30;;;;;;;8.98;5.75;;;5.50;99.90;;;;;;5040024;28;20204;-49
2022/02/03 17:22:58;;;;;;;5.43;4.05;;;5.50;99.90;;;;;;5039973;28;20238;-45
2022/02/03 17:28:10;;;;;;;10.13;5.72;;;5.50;99.90;;;;;;5040848;28;20530;-46
2022/02/03 17:30:46;;;;;;;10.73;4.90;;;5.70;99.90;;;;;;5040267;28;20227;-49
2022/02/03 18:30:43;;;;;;;17.17;8.20;;;5.10;99.90;;;;;;5042740;28;20226;-47
2022/02/03 18:52:18;;;;;;;18.65;10.35;;;5.70;99.90;;;;;;5042866;28;20274;-52
2022/02/03 18:57:35;;;;;;;11.00;7.57;;;5.70;99.90;;;;;;5042242;28;20493;-50
2022/02/03 19:00:32;;;;;;;15.75;9.95;;;5.70;99.90;;;;;;5042177;28;20207;-48
2022/02/03 20:08:04;;;;;;;23.08;13.68;;;6.00;99.90;;;;;;5041383;28;20195;-48
2022/02/03 20:10:37;;;;;;;26.20;15.35;;;6.10;99.90;;;;;;5040974;28;20238;-46
2022/02/03 20:13:08;;;;;;;18.10;12.98;;;6.20;99.90;;;;;;5041104;28;20537;-46
2022/02/03 20:15:41;;;;;;;21.23;13.48;;;6.10;99.90;;;;;;5040782;28;20234;-50
2022/02/03 20:18:14;;;;;;;27.85;14.13;;;6.00;99.90;;;;;;5041417;28;20478;-47
2022/02/03 20:20:42;;;;;;;17.23;12.10;;;6.20;99.90;;;;;;5040730;28;20210;-50
2022/02/03 20:23:14;;;;;;;20.85;13.95;;;6.20;99.90;;;;;;5041131;28;20432;-50
2022/02/03 20:25:49;;;;;;;18.33;12.98;;;6.20;99.90;;;;;;5041489;28;20208;-54
2022/02/03 20:28:17;;;;;;;17.77;11.00;;;6.00;99.90;;;;;;5041474;28;20204;-46
2022/02/03 20:30:44;;;;;;;19.50;13.20;;;6.00;99.90;;;;;;5040696;28;20502;-49
2022/02/03 20:33:12;;;;;;;19.98;11.05;;;5.80;99.90;;;;;;5040876;28;20230;-52
2022/02/03 20:35:39;;;;;;;12.27;10.63;;;5.80;99.90;;;;;;5040429;28;20533;-50
2022/02/03 20:38:07;;;;;;;13.77;7.30;;;5.80;99.90;;;;;;5041147;28;20206;-50
2022/02/03 20:40:35;;;;;;;16.45;9.95;;;5.60;99.90;;;;;;5040745;28;20417;-47
2022/02/03 20:43:08;;;;;;;18.23;9.02;;;5.50;99.90;;;;;;5040858;28;20226;-50
2022/02/03 20:45:37;;;;;;;19.83;10.38;;;5.60;99.90;;;;;;5040745;28;20448;-47
2022/02/03 20:48:05;;;;;;;14.88;9.43;;;5.50;99.90;;;;;;5042009;28;20207;-51
2022/02/03 20:50:36;;;;;;;22.20;13.90;;;5.40;99.90;;;;;;5041400;28;20216;-54
2022/02/03 20:53:04;;;;;;;12.85;9.35;;;5.50;99.90;;;;;;5041348;28;20256;-48
2022/02/03 20:55:33;;;;;;;16.15;10.35;;;5.50;99.90;;;;;;5039530;28;20242;-47
2022/02/03 20:58:00;;;;;;;20.67;11.05;;;5.50;99.90;;;;;;5040515;28;20203;-49
2022/02/03 21:00:39;;;;;;;18.65;11.90;;;5.70;99.90;;;;;;5040186;28;20203;-49
2022/02/03 21:03:18;;;;;;;10.05;8.80;;;5.60;99.90;;;;;;5040248;28;20286;-47
2022/02/03 21:05:46;;;;;;;15.02;9.55;;;5.50;99.90;;;;;;5040296;28;20253;-46
2022/02/03 21:08:17;;;;;;;20.05;9.32;;;5.50;99.90;;;;;;5040642;28;20224;-47
2022/02/03 21:10:45;;;;;;;15.23;10.52;;;5.60;99.90;;;;;;5039968;28;20262;-48
2022/02/03 21:13:12;;;;;;;17.70;11.57;;;5.60;99.90;;;;;;5040289;28;20219;-49
2022/02/03 21:15:40;;;;;;;19.70;12.18;;;5.70;99.90;;;;;;5040064;28;20333;-49
2022/02/03 21:18:11;;;;;;;26.08;11.80;;;5.60;99.90;;;;;;5040396;28;20196;-49
2022/02/03 21:20:40;;;;;;;16.50;10.98;;;5.40;99.90;;;;;;5039779;28;20211;-49
2022/02/03 21:23:09;;;;;;;15.93;10.07;;;5.30;99.90;;;;;;5040181;28;20223;-52
2022/02/03 21:25:44;;;;;;;14.63;8.75;;;5.10;99.90;;;;;;5039367;28;20200;-51
2022/02/03 21:28:21;;;;;;;13.60;8.85;;;5.00;99.90;;;;;;5040131;28;20202;-50
2022/02/03 21:30:49;;;;;;;12.85;9.35;;;4.90;99.90;;;;;;5039549;28;20307;-47
2022/02/03 21:33:25;;;;;;;14.43;8.85;;;5.10;99.90;;;;;;5040174;28;20216;-49
2022/02/03 21:36:00;;;;;;;15.23;9.20;;;5.20;99.90;;;;;;5039807;28;20225;-51
2022/02/03 21:38:28;;;;;;;16.10;9.80;;;5.20;99.90;;;;;;5040324;28;20208;-46
2022/02/03 21:40:55;;;;;;;12.20;7.85;;;5.10;99.90;;;;;;5039703;28;20204;-47
2022/02/03 21:43:22;;;;;;;9.15;7.47;;;5.20;99.90;;;;;;5039716;28;20615;-51
2022/02/03 21:45:50;;;;;;;10.85;8.02;;;5.10;99.90;;;;;;5040212;28;20215;-51
2022/02/03 21:48:17;;;;;;;12.07;8.30;;;5.10;99.90;;;;;;5039743;28;20217;-50
2022/02/03 21:50:45;;;;;;;12.75;8.27;;;5.30;99.90;;;;;;5039347;28;20204;-51
2022/02/03 21:53:18;;;;;;;15.65;8.95;;;5.30;99.90;;;;;;5039282;28;20280;-55
2022/02/03 21:55:47;;;;;;;17.98;9.20;;;5.30;99.90;;;;;;5040178;28;20196;-49
2022/02/03 21:58:15;;;;;;;16.02;9.57;;;5.30;99.90;;;;;;5039942;28;20201;-47
2022/02/03 22:00:44;;;;;;;14.75;8.52;;;5.20;99.90;;;;;;5039795;28;20197;-46
2022/02/03 22:03:11;;;;;;;16.67;9.35;;;5.20;99.90;;;;;;5039397;28;20256;-50
2022/02/03 22:05:40;;;;;;;15.90;8.82;;;5.20;99.90;;;;;;5039839;28;20223;-50
2022/02/03 22:08:08;;;;;;;10.75;7.93;;;5.30;99.90;;;;;;5039932;28;20454;-52
2022/02/03 22:10:35;;;;;;;19.40;10.40;;;5.30;99.90;;;;;;5039537;28;20207;-47
2022/02/03 22:13:04;;;;;;;15.30;9.55;;;5.20;99.90;;;;;;5039813;28;20437;-48
2022/02/03 22:15:31;;;;;;;14.95;9.48;;;5.20;99.90;;;;;;5039825;28;20264;-51
2022/02/03 22:17:58;;;;;;;17.92;10.23;;;5.10;99.90;;;;;;5039504;28;20207;-47
2022/02/03 22:20:31;;;;;;;14.70;8.95;;;5.10;99.90;;;;;;5039658;28;20246;-52
2022/02/03 22:26:45;;;;;;;13.95;9.35;;;5.10;99.90;;;;;;5039739;28;20251;-55
2022/02/03 22:29:07;;;;;;;12.90;9.13;;;5.00;99.90;;;;;;5039576;28;20211;-47
2022/02/03 22:45:02;;;;;;;10.23;6.53;;;5.20;99.90;;;;;;5042764;28;20206;-52
2022/02/03 22:50:07;;;;;;;14.77;8.82;;;5.00;99.90;;;;;;5042675;28;20206;-53
2022/02/03 22:52:35;;;;;;;8.73;6.10;;;5.00;99.90;;;;;;5043062;28;20232;-46
2022/02/03 22:55:04;;;;;;;12.90;6.05;;;5.10;99.90;;;;;;5043262;28;20545;-48
2022/02/03 22:57:32;;;;;;;15.63;7.15;;;5.20;99.90;;;;;;5042759;28;20197;-48
2022/02/03 23:00:36;;;;;;;11.38;6.10;;;5.20;99.90;;;;;;5042991;28;20203;-47
2022/02/03 23:02:53;;;;;;;12.07;6.32;;;5.20;99.90;;;;;;5041042;28;20222;-48
2022/02/03 23:05:20;;;;;;;17.50;8.02;;;5.30;99.90;;;;;;5042504;28;20264;-51
2022/02/03 23:15:43;;;;;;;9.60;6.50;;;5.20;99.90;;;;;;5046341;28;20218;-52
2022/02/03 23:18:29;;;;;;;9.63;6.30;;;5.40;99.90;;;;;;5043274;28;20407;-52
2022/02/03 23:21:28;;;;;;;10.52;6.25;;;5.30;99.90;;;;;;5042052;28;20195;-47
2022/02/03 23:23:56;;;;;;;10.15;5.88;;;5.30;99.90;;;;;;5042799;28;20200;-51
2022/02/03 23:26:27;;;;;;;13.70;6.65;;;5.30;99.90;;;;;;5042172;28;20393;-49
2022/02/03 23:29:00;;;;;;;10.63;7.35;;;5.40;99.90;;;;;;5042248;28;20211;-49
2022/02/03 23:31:35;;;;;;;10.45;6.03;;;5.60;99.90;;;;;;5041580;28;20537;-46
2022/02/03 23:34:02;;;;;;;9.90;5.25;;;5.60;99.90;;;;;;5042331;28;20371;-54
2022/02/03 23:36:30;;;;;;;9.15;6.63;;;5.50;99.90;;;;;;5041942;28;20215;-51
2022/02/03 23:39:27;;;;;;;10.80;7.65;;;5.40;99.90;;;;;;5042122;28;20351;-54
